createdAt,value
2023-01-17T00:01:52.148Z,4.17
2023-01-17T00:05:14.122Z,4.16
2023-01-17T00:08:55.250Z,4.12
2023-01-17T00:11:59.365Z,4.18
2023-01-17T00:15:02.581Z,4.03
2023-01-17T00:18:06.088Z,4.17
2023-01-17T00:21:27.670Z,4.17
2023-01-17T00:24:50.494Z,4.17
2023-01-17T00:27:53.352Z,4.22
2023-01-17T00:30:56.625Z,4.23
2023-01-17T00:33:59.635Z,4.27
2023-01-17T00:37:02.794Z,4.34
2023-01-17T00:40:06.460Z,4.36
2023-01-17T00:43:29.781Z,4.48
2023-01-17T00:46:51.430Z,4.39
2023-01-17T00:50:13.358Z,4.50
2023-01-17T00:53:35.358Z,4.48
2023-01-17T00:56:57.246Z,4.30
2023-01-17T01:00:18.654Z,4.47
2023-01-17T01:03:41.064Z,4.49
2023-01-17T01:07:02.687Z,4.58
2023-01-17T01:10:25.238Z,4.53
2023-01-17T01:13:48.487Z,4.49
2023-01-17T01:17:10.451Z,4.55
2023-01-17T01:20:33.060Z,4.59
2023-01-17T01:23:55.067Z,4.59
2023-01-17T01:27:16.929Z,4.52
2023-01-17T01:30:39.131Z,4.51
2023-01-17T01:33:43.517Z,4.58
2023-01-17T01:36:46.744Z,4.54
2023-01-17T01:39:50.176Z,4.56
2023-01-17T01:42:55.389Z,4.55
2023-01-17T01:45:59.216Z,4.43
2023-01-17T01:49:29.745Z,4.55
2023-01-17T01:52:34.840Z,4.52
2023-01-17T01:55:39.069Z,4.48
2023-01-17T01:58:45.508Z,4.55
2023-01-17T02:01:50.754Z,4.46
2023-01-17T02:04:54.011Z,4.39
2023-01-17T02:08:02.392Z,4.39
2023-01-17T02:11:05.988Z,4.36
2023-01-17T02:14:14.259Z,4.33
2023-01-17T02:18:14.976Z,4.28
2023-01-17T02:21:26.657Z,4.25
2023-01-17T02:24:52.291Z,4.29
2023-01-17T02:28:23.377Z,4.36
2023-01-17T02:31:32.792Z,4.25
2023-01-17T02:34:46.710Z,4.26
2023-01-17T02:38:05.268Z,4.20
2023-01-17T02:41:21.850Z,4.32
2023-01-17T02:44:25.072Z,4.39
2023-01-17T02:47:30.363Z,4.38
2023-01-17T02:50:59.792Z,4.43
2023-01-17T02:54:05.705Z,4.54
2023-01-17T02:57:23.850Z,4.38
2023-01-17T03:00:35.941Z,4.52
2023-01-17T03:03:57.998Z,4.48
2023-01-17T03:07:04.590Z,4.38
2023-01-17T03:10:10.234Z,4.39
2023-01-17T03:13:14.571Z,4.46
2023-01-17T03:16:21.339Z,4.11
2023-01-17T03:19:25.545Z,4.20
2023-01-17T03:22:28.756Z,4.09
2023-01-17T03:25:32.601Z,4.19
2023-01-17T03:28:35.841Z,4.16
2023-01-17T03:31:38.701Z,4.25
2023-01-17T03:34:42.129Z,4.30
2023-01-17T03:37:45.126Z,4.33
2023-01-17T03:40:48.322Z,4.36
2023-01-17T03:43:51.317Z,4.39
2023-01-17T03:46:54.484Z,4.44
2023-01-17T03:49:57.527Z,4.44
2023-01-17T03:53:00.889Z,4.39
2023-01-17T03:56:03.835Z,4.43
2023-01-17T03:59:08.113Z,4.53
2023-01-17T04:02:11.172Z,4.50
2023-01-17T04:05:15.130Z,4.53
2023-01-17T04:08:18.098Z,4.52
2023-01-17T04:11:21.634Z,4.59
2023-01-17T04:14:24.511Z,4.60
2023-01-17T04:17:27.832Z,4.70
2023-01-17T04:20:36.332Z,4.58
2023-01-17T04:23:39.634Z,4.64
2023-01-17T04:26:42.589Z,4.56
2023-01-17T04:29:46.845Z,4.59
2023-01-17T04:32:50.353Z,4.55
2023-01-17T04:35:54.483Z,4.59
2023-01-17T04:38:57.226Z,4.51
2023-01-17T04:42:00.450Z,4.46
2023-01-17T04:45:04.031Z,4.61
2023-01-17T04:48:07.984Z,4.60
2023-01-17T04:51:10.863Z,4.56
2023-01-17T04:54:14.324Z,4.64
2023-01-17T04:57:18.295Z,4.57
2023-01-17T05:00:24.048Z,4.64
2023-01-17T05:03:27.161Z,4.60
2023-01-17T05:06:30.472Z,4.65
2023-01-17T05:09:33.462Z,4.61
2023-01-17T05:12:36.685Z,4.61
2023-01-17T05:15:39.723Z,4.64
2023-01-17T05:18:42.991Z,4.53
2023-01-17T05:21:45.910Z,4.53
2023-01-17T05:24:49.244Z,4.55
2023-01-17T05:27:52.619Z,4.48
2023-01-17T05:30:55.881Z,4.52
2023-01-17T05:34:00.178Z,4.44
2023-01-17T05:37:03.429Z,4.42
2023-01-17T05:40:09.770Z,4.39
2023-01-17T05:43:13.479Z,4.37
2023-01-17T05:46:18.145Z,4.39
2023-01-17T05:49:21.432Z,4.33
2023-01-17T05:52:24.403Z,4.36
2023-01-17T05:55:28.950Z,4.44
2023-01-17T05:58:31.942Z,4.48
2023-01-17T06:01:35.125Z,4.46
2023-01-17T06:04:38.363Z,4.44
2023-01-17T06:07:44.305Z,4.43
2023-01-17T06:10:47.505Z,4.36
2023-01-17T06:13:50.476Z,4.33
2023-01-17T06:16:53.839Z,4.34
2023-01-17T06:19:56.739Z,4.15
2023-01-17T06:23:04.570Z,3.71
2023-01-17T06:26:09.179Z,3.35
2023-01-17T06:29:12.620Z,3.25
2023-01-17T06:32:16.905Z,3.07
2023-01-17T06:35:20.085Z,3.06
2023-01-17T06:38:23.547Z,3.06
2023-01-17T06:41:26.822Z,2.97
2023-01-17T06:44:29.846Z,2.97
2023-01-17T06:47:33.042Z,2.90
2023-01-17T06:50:36.071Z,2.88
2023-01-17T06:53:40.359Z,2.66
2023-01-17T06:56:43.583Z,2.69
2023-01-17T06:59:47.590Z,2.60
2023-01-17T07:02:51.052Z,2.54
2023-01-17T07:05:54.779Z,2.41
2023-01-17T07:08:57.733Z,2.29
2023-01-17T07:12:02.253Z,2.21
2023-01-17T07:15:06.442Z,2.26
2023-01-17T07:18:10.438Z,2.18
2023-01-17T07:21:15.622Z,2.02
2023-01-17T07:24:19.569Z,1.98
2023-01-17T07:27:22.661Z,1.88
2023-01-17T07:30:27.087Z,1.80
2023-01-17T07:33:30.020Z,1.86
2023-01-17T07:36:33.626Z,1.65
2023-01-17T07:39:37.524Z,1.58
2023-01-17T07:42:40.737Z,1.47
2023-01-17T07:45:45.737Z,1.56
2023-01-17T07:48:48.990Z,1.49
2023-01-17T07:51:51.909Z,1.41
2023-01-17T07:54:55.252Z,1.39
2023-01-17T07:57:58.179Z,1.22
2023-01-17T08:01:10.292Z,1.32
2023-01-17T08:04:14.724Z,1.15
2023-01-17T08:07:17.752Z,1.46
2023-01-17T08:10:21.471Z,1.71
2023-01-17T08:13:24.537Z,1.91
2023-01-17T08:16:28.911Z,2.00
2023-01-17T08:19:31.939Z,2.12
2023-01-17T08:22:35.215Z,2.50
2023-01-17T08:25:39.306Z,2.77
2023-01-17T08:28:42.645Z,2.92
2023-01-17T08:31:45.849Z,2.79
2023-01-17T08:34:49.242Z,3.07
2023-01-17T08:37:54.876Z,2.75
2023-01-17T08:41:01.484Z,2.76
2023-01-17T08:44:04.708Z,2.55
2023-01-17T08:47:08.056Z,2.97
2023-01-17T08:50:11.352Z,3.15
2023-01-17T08:53:16.396Z,3.19
2023-01-17T08:56:20.106Z,2.96
2023-01-17T08:59:23.531Z,2.92
2023-01-17T09:02:26.519Z,2.73
2023-01-17T09:05:29.828Z,2.99
2023-01-17T09:08:33.440Z,2.87
2023-01-17T09:11:37.084Z,2.83
2023-01-17T09:14:40.171Z,2.88
2023-01-17T09:17:43.815Z,2.90
2023-01-17T09:20:46.863Z,2.99
2023-01-17T09:23:50.149Z,3.01
2023-01-17T09:26:53.049Z,3.24
2023-01-17T09:29:56.279Z,3.53
2023-01-17T09:32:59.455Z,3.33
2023-01-17T09:36:04.510Z,3.27
2023-01-17T09:39:08.331Z,3.52
2023-01-17T09:42:39.566Z,3.43
2023-01-17T09:45:42.533Z,3.48
2023-01-17T09:48:46.008Z,3.79
2023-01-17T09:51:50.060Z,3.89
2023-01-17T09:54:53.522Z,3.19
2023-01-17T09:58:07.117Z,3.30
2023-01-17T10:01:34.498Z,3.48
2023-01-17T10:05:14.758Z,3.39
2023-01-17T10:08:32.844Z,3.43
2023-01-17T10:12:06.608Z,3.78
2023-01-17T10:15:15.495Z,3.95
2023-01-17T10:18:47.991Z,4.01
2023-01-17T10:21:59.305Z,4.24
2023-01-17T10:25:24.645Z,4.15
2023-01-17T10:28:53.260Z,4.31
2023-01-17T10:32:00.109Z,4.66
2023-01-17T10:35:15.847Z,4.71
2023-01-17T10:38:19.872Z,4.88
2023-01-17T10:41:29.264Z,4.87
2023-01-17T10:44:43.981Z,4.91
2023-01-17T10:47:54.173Z,4.56
2023-01-17T10:51:03.627Z,4.78
2023-01-17T10:54:09.477Z,4.78
2023-01-17T10:57:15.653Z,4.60
2023-01-17T11:00:44.398Z,4.95
2023-01-17T11:03:54.638Z,5.12
2023-01-17T11:07:18.871Z,5.39
2023-01-17T11:10:40.352Z,5.18
2023-01-17T11:13:48.608Z,5.14
2023-01-17T11:17:02.742Z,5.43
2023-01-17T11:20:15.770Z,5.24
2023-01-17T11:23:30.519Z,5.76
2023-01-17T11:26:34.912Z,5.83
2023-01-17T11:29:39.655Z,6.40
2023-01-17T11:33:00.125Z,5.78
2023-01-17T11:36:03.395Z,6.68
2023-01-17T11:39:22.930Z,6.25
2023-01-17T11:42:34.854Z,6.74
2023-01-17T11:45:41.493Z,7.39
2023-01-17T11:48:54.967Z,8.10
2023-01-17T11:51:58.946Z,8.02
2023-01-17T11:55:02.240Z,9.80
2023-01-17T11:58:05.433Z,11.02
2023-01-17T12:01:27.319Z,12.03
2023-01-17T12:05:06.060Z,12.17
2023-01-17T12:08:28.374Z,11.10
2023-01-17T12:12:00.659Z,12.72
2023-01-17T12:15:37.757Z,11.84
2023-01-17T12:18:49.931Z,14.41
2023-01-17T12:22:05.355Z,15.20
2023-01-17T12:25:29.328Z,15.28
2023-01-17T12:28:50.862Z,15.83
2023-01-17T12:31:54.034Z,15.22
2023-01-17T12:35:02.231Z,15.78
2023-01-17T12:38:31.841Z,15.90
2023-01-17T12:41:53.201Z,15.08
2023-01-17T12:45:10.482Z,13.12
2023-01-17T12:48:19.125Z,12.12
2023-01-17T12:51:29.160Z,12.15
2023-01-17T12:54:38.413Z,11.39
2023-01-17T12:57:45.837Z,10.36
2023-01-17T13:00:55.047Z,9.84
2023-01-17T13:04:32.195Z,9.03
2023-01-17T13:07:50.595Z,8.59
2023-01-17T13:11:02.205Z,8.23
2023-01-17T13:14:08.814Z,7.93
2023-01-17T13:17:26.837Z,7.58
2023-01-17T13:21:08.409Z,7.22
2023-01-17T13:24:22.908Z,6.99
2023-01-17T13:28:06.885Z,7.03
2023-01-17T13:31:32.514Z,6.87
2023-01-17T13:34:49.455Z,6.76
2023-01-17T13:37:56.184Z,6.83
2023-01-17T13:41:05.021Z,6.80
2023-01-17T13:44:23.158Z,6.86
2023-01-17T13:47:26.225Z,6.54
2023-01-17T13:50:39.217Z,6.62
2023-01-17T13:53:42.648Z,6.72
2023-01-17T13:56:45.993Z,6.44
2023-01-17T13:59:50.939Z,6.56
2023-01-17T14:02:55.588Z,6.58
2023-01-17T14:05:58.905Z,6.50
2023-01-17T14:09:20.938Z,6.42
2023-01-17T14:12:26.460Z,6.38
2023-01-17T14:15:30.048Z,6.19
2023-01-17T14:18:34.348Z,6.02
2023-01-17T14:21:37.287Z,5.89
2023-01-17T14:25:01.236Z,5.81
2023-01-17T14:28:08.434Z,5.75
2023-01-17T14:31:11.881Z,5.72
2023-01-17T14:34:23.927Z,5.61
2023-01-17T14:37:33.094Z,5.54
2023-01-17T14:40:38.510Z,5.54
2023-01-17T14:43:43.635Z,5.49
2023-01-17T14:46:48.658Z,5.50
2023-01-17T14:50:09.229Z,5.49
2023-01-17T14:53:12.127Z,5.50
2023-01-17T14:56:17.263Z,5.45
2023-01-17T14:59:22.185Z,5.32
2023-01-17T15:02:25.561Z,5.45
2023-01-17T15:05:30.359Z,5.43
2023-01-17T15:08:35.516Z,5.49
2023-01-17T15:11:39.106Z,5.51
2023-01-17T15:14:45.551Z,5.49
2023-01-17T15:17:48.532Z,5.38
2023-01-17T15:21:03.358Z,5.39
2023-01-17T15:24:08.461Z,5.44
2023-01-17T15:27:14.709Z,5.50
2023-01-17T15:30:18.419Z,5.39
2023-01-17T15:33:21.708Z,5.41
2023-01-17T15:36:30.191Z,5.42
2023-01-17T15:39:40.053Z,5.39
2023-01-17T15:42:44.124Z,5.37
2023-01-17T15:45:57.417Z,5.39
2023-01-17T15:49:39.014Z,5.37
2023-01-17T15:52:50.073Z,5.46
2023-01-17T15:55:53.014Z,5.43
2023-01-17T15:59:34.680Z,5.44
2023-01-17T16:02:42.967Z,5.43
2023-01-17T16:05:47.634Z,5.47
2023-01-17T16:08:54.659Z,5.43
2023-01-17T16:11:58.035Z,5.30
2023-01-17T16:15:11.703Z,5.40
2023-01-17T16:18:23.107Z,5.52
2023-01-17T16:21:31.165Z,5.43
2023-01-17T16:24:34.479Z,5.41
2023-01-17T16:27:37.865Z,5.42
2023-01-17T16:30:41.538Z,5.33
2023-01-17T16:33:46.176Z,5.40
2023-01-17T16:36:54.400Z,5.42
2023-01-17T16:39:57.446Z,5.34
2023-01-17T16:43:01.148Z,5.39
2023-01-17T16:46:04.326Z,5.31
2023-01-17T16:49:07.574Z,5.26
2023-01-17T16:52:10.515Z,5.26
2023-01-17T16:55:15.798Z,5.28
2023-01-17T16:58:20.495Z,5.33
2023-01-17T17:01:25.617Z,5.25
2023-01-17T17:04:28.891Z,5.14
2023-01-17T17:07:35.100Z,5.17
2023-01-17T17:10:38.893Z,5.01
2023-01-17T17:13:44.508Z,5.01
2023-01-17T17:16:51.879Z,4.95
2023-01-17T17:19:55.821Z,4.88
2023-01-17T17:22:59.098Z,4.91
2023-01-17T17:26:02.557Z,4.87
2023-01-17T17:29:11.754Z,4.81
2023-01-17T17:32:15.729Z,4.80
2023-01-17T17:35:19.143Z,4.66
2023-01-17T17:38:23.271Z,4.61
2023-01-17T17:41:28.394Z,4.67
2023-01-17T17:44:32.561Z,4.68
2023-01-17T17:47:35.875Z,4.64
2023-01-17T17:50:39.727Z,4.71
2023-01-17T17:53:42.899Z,4.55
2023-01-17T17:56:47.498Z,4.59
2023-01-17T17:59:51.085Z,4.53
2023-01-17T18:02:54.397Z,4.56
2023-01-17T18:06:05.749Z,4.56
2023-01-17T18:09:10.996Z,4.60
2023-01-17T18:12:17.369Z,4.51
2023-01-17T18:15:21.738Z,4.48
2023-01-17T18:18:25.781Z,4.37
2023-01-17T18:21:34.550Z,4.39
2023-01-17T18:24:38.011Z,4.39
2023-01-17T18:27:45.617Z,4.31
2023-01-17T18:30:49.901Z,4.35
2023-01-17T18:33:55.334Z,4.33
2023-01-17T18:36:59.284Z,4.33
2023-01-17T18:40:03.808Z,4.30
2023-01-17T18:43:09.683Z,4.25
2023-01-17T18:46:13.722Z,4.28
2023-01-17T18:49:19.727Z,4.23
2023-01-17T18:52:25.276Z,4.24
2023-01-17T18:55:28.950Z,4.19
2023-01-17T18:58:40.237Z,4.10
2023-01-17T19:01:44.860Z,4.10
2023-01-17T19:04:53.714Z,4.12
2023-01-17T19:07:58.042Z,4.11
2023-01-17T19:11:04.831Z,3.92
2023-01-17T19:14:10.685Z,3.99
2023-01-17T19:17:14.873Z,3.99
2023-01-17T19:20:19.578Z,3.87
2023-01-17T19:23:23.825Z,3.91
2023-01-17T19:26:28.657Z,3.86
2023-01-17T19:29:33.251Z,3.73
2023-01-17T19:32:37.426Z,3.62
2023-01-17T19:35:41.261Z,3.56
2023-01-17T19:39:03.016Z,3.37
2023-01-17T19:42:11.083Z,3.24
2023-01-17T19:45:17.511Z,3.21
2023-01-17T19:48:23.055Z,3.13
2023-01-17T19:51:31.073Z,2.95
2023-01-17T19:54:37.111Z,2.83
2023-01-17T19:57:42.856Z,2.78
2023-01-17T20:00:48.852Z,2.61
2023-01-17T20:03:57.905Z,2.48
2023-01-17T20:07:03.013Z,2.44
2023-01-17T20:10:09.770Z,2.34
2023-01-17T20:13:14.317Z,2.25
2023-01-17T20:16:18.691Z,2.35
2023-01-17T20:19:24.465Z,2.21
2023-01-17T20:22:28.702Z,2.16
2023-01-17T20:25:34.482Z,2.15
2023-01-17T20:28:40.812Z,2.20
2023-01-17T20:31:45.963Z,2.10
2023-01-17T20:34:54.588Z,2.01
2023-01-17T20:37:58.654Z,2.00
2023-01-17T20:41:02.468Z,1.92
2023-01-17T20:44:09.582Z,1.92
2023-01-17T20:47:13.395Z,1.85
2023-01-17T20:50:18.098Z,1.81
2023-01-17T20:53:26.341Z,1.79
2023-01-17T20:56:34.848Z,1.68
2023-01-17T20:59:38.511Z,1.68
2023-01-17T21:02:42.018Z,1.67
2023-01-17T21:05:46.763Z,1.61
2023-01-17T21:08:52.196Z,1.60
2023-01-17T21:12:01.384Z,1.56
2023-01-17T21:15:05.211Z,1.67
2023-01-17T21:18:10.339Z,1.67
2023-01-17T21:21:18.260Z,1.64
2023-01-17T21:24:21.801Z,1.70
2023-01-17T21:27:25.901Z,1.66
2023-01-17T21:30:29.287Z,1.70
2023-01-17T21:33:32.669Z,1.74
2023-01-17T21:36:38.504Z,1.70
2023-01-17T21:39:41.478Z,1.76
2023-01-17T21:42:45.149Z,1.75
2023-01-17T21:45:48.185Z,1.80
2023-01-17T21:48:51.433Z,1.77
2023-01-17T21:51:54.402Z,1.79
2023-01-17T21:55:16.118Z,1.73
2023-01-17T21:58:37.892Z,1.72
2023-01-17T22:01:41.229Z,1.70
2023-01-17T22:04:44.529Z,1.73
2023-01-17T22:08:06.298Z,1.67
2023-01-17T22:11:18.606Z,1.79
2023-01-17T22:14:21.534Z,1.76
2023-01-17T22:17:24.790Z,1.79
2023-01-17T22:20:28.010Z,1.82
2023-01-17T22:23:31.267Z,1.76
2023-01-17T22:26:35.139Z,1.77
2023-01-17T22:29:38.481Z,1.75
2023-01-17T22:32:41.665Z,1.74
2023-01-17T22:35:44.845Z,1.76
2023-01-17T22:38:48.232Z,1.79
2023-01-17T22:41:51.597Z,1.85
2023-01-17T22:44:54.471Z,1.80
2023-01-17T22:47:57.719Z,1.84
2023-01-17T22:51:02.429Z,1.91
2023-01-17T22:54:05.754Z,1.84
2023-01-17T22:57:09.191Z,1.90
2023-01-17T23:00:17.200Z,1.87
2023-01-17T23:03:20.552Z,1.86
2023-01-17T23:06:32.429Z,2.03
2023-01-17T23:09:35.335Z,2.15
2023-01-17T23:12:38.758Z,2.11
2023-01-17T23:16:01.068Z,2.25
2023-01-17T23:19:22.299Z,2.10
2023-01-17T23:22:27.883Z,2.34
2023-01-17T23:25:31.291Z,2.47
2023-01-17T23:28:34.351Z,2.44
2023-01-17T23:31:37.774Z,2.42
2023-01-17T23:34:41.368Z,2.48
2023-01-17T23:38:03.197Z,2.56
2023-01-17T23:41:26.817Z,2.67
2023-01-17T23:44:32.156Z,2.68
2023-01-17T23:47:36.286Z,2.74
2023-01-17T23:50:42.605Z,2.79
2023-01-17T23:53:45.516Z,2.69
2023-01-17T23:56:48.762Z,2.66
2023-01-17T23:59:51.738Z,2.70
